Time;durP1;ratioP1;P1;durP2;ratioP2;P2;SDS_P1;SDS_P2;PMS_P1;PMS_P2;Temp;Humidity;BMP_temperature;BMP_pressure;BME280_temperature;BME280_humidity;BME280_pressure;Samples;Min_cycle;Max_cycle;Signal;HPM_P1;HPM_P2
2020/12/10 03:45:58;;;;;;;10.25;7.88;;;7.90;79.80;;;;;;5657638;23;20221;-86
2020/12/10 03:48:24;;;;;;;12.07;7.68;;;8.00;79.70;;;;;;4926661;29;20208;-87
2020/12/10 03:50:49;;;;;;;11.27;8.43;;;7.90;80.00;;;;;;4918499;29;20068;-86
2020/12/10 03:53:15;;;;;;;11.40;7.95;;;8.00;80.00;;;;;;4945786;29;20034;-86
2020/12/10 03:55:40;;;;;;;12.32;8.23;;;8.00;80.00;;;;;;4952131;29;20028;-87
2020/12/10 03:58:06;;;;;;;11.10;8.07;;;8.10;79.60;;;;;;4930809;29;20238;-87
2020/12/10 04:00:32;;;;;;;10.80;8.27;;;8.10;79.60;;;;;;4947502;29;20259;-87
2020/12/10 04:02:58;;;;;;;11.27;7.80;;;8.10;79.60;;;;;;4929994;29;20023;-87
2020/12/10 04:05:24;;;;;;;11.00;7.80;;;8.10;79.50;;;;;;4930192;29;20020;-87
2020/12/10 04:07:50;;;;;;;11.43;8.23;;;8.10;79.50;;;;;;4930001;29;20023;-87
2020/12/10 04:10:15;;;;;;;10.40;7.43;;;8.20;79.50;;;;;;4930171;29;20028;-87
2020/12/10 04:12:41;;;;;;;10.00;7.55;;;8.20;80.00;;;;;;4929776;29;20047;-87
2020/12/10 04:15:09;;;;;;;11.05;7.88;;;8.20;79.30;;;;;;4929820;29;20031;-87
2020/12/10 04:17:34;;;;;;;12.32;8.80;;;8.20;79.40;;;;;;4913602;29;20051;-87
2020/12/10 04:20:00;;;;;;;11.50;7.70;;;8.20;79.30;;;;;;4946849;29;20023;-87
2020/12/10 04:22:26;;;;;;;9.20;6.90;;;8.10;79.50;;;;;;4946216;29;20223;-87
2020/12/10 04:24:51;;;;;;;9.40;7.03;;;8.10;79.40;;;;;;4929373;29;20143;-87
2020/12/10 04:27:17;;;;;;;8.38;6.40;;;8.10;79.50;;;;;;4929376;29;20078;-87
2020/12/10 04:29:42;;;;;;;8.43;6.13;;;8.10;79.30;;;;;;4929713;29;20024;-87
2020/12/10 04:32:08;;;;;;;9.00;6.40;;;8.20;79.30;;;;;;4929866;29;20047;-87
2020/12/10 04:34:34;;;;;;;8.27;5.82;;;8.20;79.10;;;;;;4929521;29;20062;-87
2020/12/10 04:37:00;;;;;;;10.25;6.80;;;8.20;79.00;;;;;;4929498;29;20051;-87
2020/12/10 04:39:27;;;;;;;8.07;5.70;;;8.20;78.80;;;;;;4929832;29;20015;-87
2020/12/10 04:41:53;;;;;;;8.25;5.53;;;8.20;78.60;;;;;;4929643;29;20036;-87
2020/12/10 04:44:18;;;;;;;6.15;5.10;;;8.10;78.50;;;;;;4929158;29;20427;-87
2020/12/10 04:46:45;;;;;;;9.23;6.05;;;8.10;78.70;;;;;;4917565;29;20137;-87
2020/12/10 04:49:12;;;;;;;9.02;6.15;;;8.10;78.70;;;;;;4910624;29;20111;-87
2020/12/10 04:51:39;;;;;;;9.30;6.53;;;8.10;78.60;;;;;;4889456;29;20047;-87
2020/12/10 04:54:05;;;;;;;;;;;8.20;78.90;;;;;;4907030;29;20243;-87
2020/12/10 04:56:30;;;;;;;11.33;6.17;;;8.20;79.00;;;;;;4906174;29;19904;-87
2020/12/10 04:58:56;;;;;;;7.90;5.82;;;8.20;78.60;;;;;;4903283;29;20095;-87
2020/12/10 05:01:23;;;;;;;10.18;7.20;;;8.20;78.60;;;;;;4882169;29;20037;-87
2020/12/10 05:03:48;;;;;;;9.55;6.80;;;8.30;78.70;;;;;;4859111;29;20116;-87
2020/12/10 05:06:15;;;;;;;14.88;6.20;;;8.20;78.60;;;;;;4854581;29;20074;-88
2020/12/10 05:08:42;;;;;;;11.20;7.20;;;8.10;78.90;;;;;;4854425;29;20316;-87
2020/12/10 05:11:08;;;;;;;8.00;6.05;;;8.20;79.00;;;;;;4854683;29;20328;-87
2020/12/10 05:13:35;;;;;;;8.65;5.70;;;8.20;78.70;;;;;;4870202;29;20025;-87
2020/12/10 05:16:00;;;;;;;9.10;6.18;;;8.10;78.30;;;;;;4854310;29;20032;-87
2020/12/10 05:18:27;;;;;;;7.43;5.10;;;8.00;78.60;;;;;;4854564;29;20064;-87
2020/12/10 05:20:55;;;;;;;6.93;5.18;;;8.00;78.60;;;;;;4854705;29;20029;-87
2020/12/10 05:23:30;;;;;;;7.15;5.18;;;8.00;78.60;;;;;;4885341;29;20044;-87
2020/12/10 05:25:56;;;;;;;8.88;6.40;;;8.00;79.20;;;;;;4877145;29;20060;-87
2020/12/10 05:28:24;;;;;;;7.07;5.32;;;8.00;79.00;;;;;;4892025;29;20616;-87
2020/12/10 05:31:07;;;;;;;9.30;5.80;;;8.00;78.30;;;;;;4892433;29;20051;-87
2020/12/10 05:33:33;;;;;;;6.07;4.88;;;8.00;78.70;;;;;;4909041;29;20028;-87
2020/12/10 05:36:18;;;;;;;6.35;4.43;;;8.00;78.90;;;;;;4892321;29;20020;-87
2020/12/10 05:39:04;;;;;;;8.82;5.18;;;8.00;78.80;;;;;;4892381;29;20047;-87
2020/12/10 05:41:35;;;;;;;7.47;5.17;;;8.00;79.00;;;;;;4892314;29;20309;-88
2020/12/10 05:44:17;;;;;;;7.03;5.25;;;7.90;78.90;;;;;;4898359;29;20039;-87
2020/12/10 05:46:43;;;;;;;8.50;5.55;;;7.90;78.80;;;;;;4918570;29;20039;-87
2020/12/10 05:49:13;;;;;;;7.27;5.57;;;7.90;79.10;;;;;;4918354;29;20103;-87
2020/12/10 05:51:49;;;;;;;10.15;5.72;;;7.80;79.10;;;;;;4921089;29;20331;-87
2020/12/10 05:54:17;;;;;;;10.00;4.93;;;7.80;79.00;;;;;;4904996;29;20310;-88
2020/12/10 05:56:46;;;;;;;5.50;4.55;;;7.90;78.90;;;;;;4934733;29;20083;-87
2020/12/10 05:59:13;;;;;;;6.53;4.88;;;7.80;78.80;;;;;;4921905;29;20262;-87
2020/12/10 06:01:38;;;;;;;7.75;4.88;;;7.80;78.50;;;;;;4917173;29;20024;-88
2020/12/10 06:04:06;;;;;;;6.13;3.95;;;7.80;78.70;;;;;;4916170;29;20066;-87
2020/12/10 06:06:31;;;;;;;6.45;4.85;;;7.70;78.60;;;;;;4905498;29;20020;-87
2020/12/10 06:09:03;;;;;;;6.72;4.70;;;7.60;78.90;;;;;;4921197;29;20370;-87
2020/12/10 06:11:30;;;;;;;8.07;5.22;;;7.60;79.30;;;;;;4929302;29;20024;-87
2020/12/10 06:14:04;;;;;;;7.28;4.68;;;7.60;79.20;;;;;;4929775;29;20027;-87
2020/12/10 06:16:30;;;;;;;6.18;4.55;;;7.50;79.40;;;;;;4923423;29;20035;-87
2020/12/10 06:19:04;;;;;;;11.95;7.05;;;7.60;79.60;;;;;;4937573;29;20215;-88
2020/12/10 06:21:35;;;;;;;8.88;5.68;;;7.60;79.50;;;;;;4904417;29;20319;-88
2020/12/10 06:24:21;;;;;;;9.75;4.47;;;7.70;79.60;;;;;;4932771;29;20031;-88
2020/12/10 06:26:47;;;;;;;6.05;4.10;;;7.70;79.30;;;;;;4920910;29;20331;-88
2020/12/10 06:29:27;;;;;;;5.03;3.93;;;7.70;79.30;;;;;;4921357;29;20051;-88
2020/12/10 06:32:11;;;;;;;6.78;4.65;;;7.70;79.30;;;;;;4918396;29;20020;-88
2020/12/10 06:34:46;;;;;;;6.57;4.32;;;7.60;79.30;;;;;;4919802;29;20019;-87
2020/12/10 06:37:30;;;;;;;8.30;4.40;;;7.60;79.10;;;;;;4934601;29;20022;-88
2020/12/10 06:40:05;;;;;;;8.68;4.35;;;7.60;79.50;;;;;;4904358;29;20043;-88
2020/12/10 06:42:45;;;;;;;6.50;4.18;;;7.70;79.40;;;;;;4919247;29;20177;-88
2020/12/10 06:45:36;;;;;;;6.10;4.13;;;7.70;79.40;;;;;;4917474;29;20026;-88
2020/12/10 06:48:25;;;;;;;5.88;3.83;;;7.80;79.40;;;;;;4879668;29;20044;-88
2020/12/10 06:50:51;;;;;;;10.60;3.92;;;7.80;78.90;;;;;;4884022;29;20073;-88
2020/12/10 06:53:20;;;;;;;6.57;3.80;;;7.80;78.70;;;;;;4876988;29;20037;-87
2020/12/10 06:55:58;;;;;;;8.00;4.93;;;7.80;78.70;;;;;;4886618;29;20118;-87
2020/12/10 06:58:45;;;;;;;4.63;3.72;;;7.80;79.50;;;;;;4894261;29;20049;-88
2020/12/10 07:01:37;;;;;;;5.70;4.35;;;7.80;78.80;;;;;;4888516;29;20111;-88
2020/12/10 07:07:12;;;;;;;8.32;4.40;;;7.80;78.50;;;;;;4908160;29;20350;-87
2020/12/10 07:09:47;;;;;;;9.88;4.95;;;7.80;78.10;;;;;;4892473;29;20219;-87
2020/12/10 07:12:32;;;;;;;19.35;11.35;;;7.70;78.50;;;;;;4892489;29;20113;-88
2020/12/10 07:15:26;;;;;;;17.90;11.32;;;7.70;78.30;;;;;;4892546;29;20025;-87
2020/12/10 07:17:52;;;;;;;14.93;10.30;;;7.70;78.30;;;;;;4908178;29;20132;-88
2020/12/10 07:20:19;;;;;;;10.38;6.72;;;7.70;78.50;;;;;;4892094;29;20028;-87
2020/12/10 07:22:49;;;;;;;7.88;5.90;;;7.70;78.40;;;;;;4890086;29;20346;-87
2020/12/10 07:25:15;;;;;;;10.80;7.55;;;7.50;78.60;;;;;;4890384;29;20028;-87
2020/12/10 07:27:43;;;;;;;7.45;5.32;;;7.50;79.10;;;;;;4890820;29;20046;-88
2020/12/10 07:30:19;;;;;;;6.10;4.82;;;7.50;79.70;;;;;;4890481;29;20048;-87
2020/12/10 07:32:45;;;;;;;13.75;8.30;;;7.60;79.20;;;;;;4873927;29;20029;-88
2020/12/10 07:35:12;;;;;;;7.47;6.13;;;7.60;79.30;;;;;;4889443;29;20033;-87
2020/12/10 07:37:39;;;;;;;8.98;5.88;;;7.50;79.10;;;;;;4889541;29;20311;-87
2020/12/10 07:40:12;;;;;;;9.73;6.53;;;7.50;79.10;;;;;;4889322;29;20060;-87
2020/12/10 07:42:38;;;;;;;9.07;6.85;;;7.50;79.50;;;;;;4870623;29;20033;-87
2020/12/10 07:45:18;;;;;;;7.57;5.13;;;7.50;79.30;;;;;;4870736;29;20292;-87
2020/12/10 07:48:13;;;;;;;5.80;4.10;;;7.40;79.40;;;;;;4856788;29;20044;-87
2020/12/10 07:50:45;;;;;;;8.52;4.13;;;7.50;78.90;;;;;;4806173;29;20055;-87
2020/12/10 07:53:11;;;;;;;7.05;4.75;;;7.50;79.20;;;;;;4828086;29;20038;-87
2020/12/10 07:55:43;;;;;;;7.05;4.45;;;7.30;79.30;;;;;;4803900;29;20240;-87
2020/12/10 07:58:27;;;;;;;8.23;6.03;;;7.40;79.60;;;;;;4806411;29;20171;-87
2020/12/10 08:00:57;;;;;;;5.43;4.28;;;7.40;79.50;;;;;;4822278;29;20034;-87
2020/12/10 08:03:30;;;;;;;7.07;4.82;;;7.40;79.30;;;;;;4816405;29;20115;-87
2020/12/10 08:06:04;;;;;;;6.78;4.43;;;7.30;79.80;;;;;;4809597;29;20109;-87
2020/12/10 08:08:38;;;;;;;6.57;4.90;;;7.30;80.00;;;;;;4807534;29;20115;-87
2020/12/10 08:11:20;;;;;;;4.90;3.92;;;7.30;80.10;;;;;;4808117;29;20083;-87
2020/12/10 08:13:55;;;;;;;6.85;4.35;;;7.20;80.00;;;;;;4822077;29;20376;-87
2020/12/10 08:16:21;;;;;;;10.68;4.57;;;7.20;80.30;;;;;;4829173;29;20029;-87
2020/12/10 08:18:47;;;;;;;7.88;4.90;;;7.10;80.60;;;;;;4850676;29;20053;-87
2020/12/10 08:21:13;;;;;;;6.18;4.53;;;7.10;80.90;;;;;;4828334;29;20038;-87
2020/12/10 08:26:15;;;;;;;7.30;5.13;;;7.10;80.90;;;;;;5051136;23;20308;-86
2020/12/10 08:28:54;;;;;;;9.95;4.43;;;7.00;81.20;;;;;;4933350;29;20031;-86
2020/12/10 08:31:29;;;;;;;6.15;4.55;;;7.10;81.30;;;;;;4950868;29;20030;-86
2020/12/10 08:33:57;;;;;;;6.20;4.43;;;7.10;81.50;;;;;;4961184;28;20026;-86
2020/12/10 08:36:29;;;;;;;6.55;4.65;;;7.10;81.30;;;;;;4986363;28;20090;-86
2020/12/10 08:38:56;;;;;;;6.15;4.57;;;7.10;81.10;;;;;;4985506;28;20033;-86
2020/12/10 08:41:34;;;;;;;5.65;4.70;;;7.10;81.30;;;;;;4968803;28;20027;-85
2020/12/10 08:44:05;;;;;;;6.60;4.70;;;7.10;81.50;;;;;;4986789;28;20077;-85
2020/12/10 08:46:33;;;;;;;5.72;4.00;;;7.10;81.30;;;;;;4969313;28;20022;-86
2020/12/10 08:49:38;;;;;;;9.02;4.25;;;7.00;81.50;;;;;;4970450;28;20031;-85
2020/12/10 08:52:03;;;;;;;6.88;4.35;;;7.00;81.80;;;;;;4908692;29;20135;-85
2020/12/10 08:54:29;;;;;;;4.97;4.00;;;7.00;81.70;;;;;;4900489;29;20039;-86
2020/12/10 08:57:04;;;;;;;6.80;5.07;;;7.10;81.50;;;;;;4928555;29;20036;-86
2020/12/10 08:59:30;;;;;;;8.45;5.20;;;7.10;81.60;;;;;;4922750;29;20023;-85
2020/12/10 09:01:55;;;;;;;7.18;4.30;;;7.20;81.50;;;;;;4928051;29;20044;-82
2020/12/10 09:04:21;;;;;;;6.88;4.50;;;7.20;81.40;;;;;;4909481;29;20066;-82
2020/12/10 09:06:47;;;;;;;9.32;4.70;;;7.20;81.60;;;;;;4927360;29;20385;-85
2020/12/10 09:09:14;;;;;;;8.77;5.23;;;7.30;81.40;;;;;;4908215;29;20344;-84
2020/12/10 09:11:45;;;;;;;6.47;4.40;;;7.30;81.50;;;;;;4908708;29;20189;-85
2020/12/10 09:14:11;;;;;;;7.38;5.20;;;7.40;81.00;;;;;;4910867;29;20355;-85
2020/12/10 09:16:37;;;;;;;6.57;4.85;;;7.30;81.00;;;;;;4910710;29;20347;-85
2020/12/10 09:19:02;;;;;;;7.45;4.95;;;7.40;81.10;;;;;;4911556;29;20028;-85
2020/12/10 09:21:37;;;;;;;7.10;5.00;;;7.40;80.70;;;;;;4927881;29;20024;-85
2020/12/10 09:24:02;;;;;;;6.53;4.72;;;7.50;80.90;;;;;;4978532;28;20030;-86
2020/12/10 09:26:28;;;;;;;12.70;5.28;;;7.50;80.90;;;;;;4955708;29;20051;-85
2020/12/10 09:28:56;;;;;;;7.53;5.07;;;7.40;80.60;;;;;;4950560;29;20306;-86
2020/12/10 09:31:22;;;;;;;6.55;4.95;;;7.50;80.60;;;;;;4951116;29;20022;-86
2020/12/10 09:33:49;;;;;;;7.88;5.05;;;7.50;81.10;;;;;;4951290;29;20298;-85
2020/12/10 09:36:15;;;;;;;7.07;5.30;;;7.50;80.70;;;;;;4967480;29;20101;-85
2020/12/10 09:39:04;;;;;;;6.88;5.28;;;7.60;80.80;;;;;;4966530;29;20078;-86
2020/12/10 09:42:10;;;;;;;11.65;5.03;;;7.60;80.60;;;;;;4907302;29;20093;-86
2020/12/10 09:44:59;;;;;;;7.60;5.47;;;7.70;80.40;;;;;;4874015;29;20098;-86
2020/12/10 09:47:25;;;;;;;8.07;5.20;;;7.70;80.00;;;;;;4879332;29;20044;-86
2020/12/10 09:49:51;;;;;;;12.15;5.75;;;7.70;80.00;;;;;;4904186;29;20033;-87
2020/12/10 09:52:18;;;;;;;10.07;5.55;;;7.70;80.20;;;;;;4890983;29;20196;-86
2020/12/10 09:57:24;;;;;;;8.30;6.03;;;7.60;79.90;;;;;;4888185;29;20071;-86
2020/12/10 09:59:50;;;;;;;8.50;5.28;;;7.60;80.10;;;;;;4888955;29;20324;-86
2020/12/10 10:02:39;;;;;;;8.70;5.57;;;7.70;79.80;;;;;;4906759;29;20099;-86
2020/12/10 10:05:06;;;;;;;8.45;6.00;;;7.70;79.70;;;;;;4850174;29;20061;-86
2020/12/10 10:07:31;;;;;;;8.10;5.25;;;7.70;79.80;;;;;;4835010;29;20139;-86
2020/12/10 10:09:57;;;;;;;10.80;5.45;;;7.80;79.90;;;;;;4868460;29;20237;-86
2020/12/10 10:12:23;;;;;;;9.52;5.03;;;7.90;79.50;;;;;;4848544;29;20065;-86
2020/12/10 10:14:48;;;;;;;12.40;5.22;;;7.90;79.30;;;;;;4853791;29;20026;-86
2020/12/10 10:17:16;;;;;;;10.73;5.65;;;8.00;79.30;;;;;;4854161;29;20051;-86
2020/12/10 10:20:02;;;;;;;7.65;5.63;;;8.00;79.20;;;;;;4879765;29;20032;-86
2020/12/10 10:22:31;;;;;;;12.83;5.73;;;8.10;79.00;;;;;;4890895;29;20029;-86
2020/12/10 10:24:57;;;;;;;10.63;5.28;;;8.10;78.80;;;;;;4890078;29;20116;-86
2020/12/10 10:27:22;;;;;;;14.20;4.75;;;8.10;78.80;;;;;;4891502;29;20049;-86
2020/12/10 10:29:48;;;;;;;7.68;5.30;;;8.10;78.50;;;;;;4906714;29;20061;-85
2020/12/10 10:32:36;;;;;;;11.20;4.78;;;8.00;78.40;;;;;;4900763;29;20088;-86
2020/12/10 10:35:02;;;;;;;6.47;4.07;;;8.00;78.10;;;;;;4880092;29;20268;-86
2020/12/10 10:37:49;;;;;;;6.53;4.97;;;8.00;77.90;;;;;;4948069;29;20019;-86
2020/12/10 10:40:15;;;;;;;6.68;5.00;;;7.90;78.20;;;;;;4891350;29;20069;-85
2020/12/10 10:42:41;;;;;;;7.03;5.13;;;7.90;78.80;;;;;;4895063;29;20235;-85
2020/12/10 10:45:09;;;;;;;6.68;4.32;;;7.90;78.80;;;;;;4895309;29;20258;-86
2020/12/10 10:47:34;;;;;;;6.97;4.75;;;7.90;78.80;;;;;;4894737;29;20036;-86
2020/12/10 10:50:20;;;;;;;7.13;4.80;;;7.90;78.70;;;;;;4877729;29;20037;-86
2020/12/10 10:53:05;;;;;;;6.57;4.60;;;7.90;78.70;;;;;;4876153;29;20036;-85
2020/12/10 10:55:51;;;;;;;7.05;4.53;;;7.90;78.80;;;;;;4857672;29;20037;-86
2020/12/10 10:58:18;;;;;;;10.13;6.13;;;7.80;78.50;;;;;;4872835;29;20077;-86
2020/12/10 11:00:47;;;;;;;10.07;5.07;;;7.80;78.90;;;;;;4821716;29;20038;-85
2020/12/10 11:03:14;;;;;;;22.63;10.10;;;7.90;79.20;;;;;;4823694;29;20357;-86
2020/12/10 11:05:39;;;;;;;21.80;6.80;;;7.90;79.10;;;;;;4837185;29;20030;-86
2020/12/10 11:08:05;;;;;;;25.95;11.25;;;7.90;79.00;;;;;;4838945;29;20033;-86
2020/12/10 11:10:31;;;;;;;21.23;11.57;;;8.00;79.00;;;;;;4838747;29;20038;-85
2020/12/10 11:12:56;;;;;;;8.77;5.95;;;8.00;78.90;;;;;;4854332;29;20062;-85
2020/12/10 11:15:48;;;;;;;6.93;4.88;;;8.00;78.70;;;;;;4818431;29;20109;-86
2020/12/10 11:18:14;;;;;;;9.02;6.00;;;8.00;78.50;;;;;;4834445;29;20046;-85
2020/12/10 11:20:39;;;;;;;7.53;5.30;;;8.00;78.50;;;;;;4827490;29;20061;-85
2020/12/10 11:23:07;;;;;;;7.38;4.90;;;8.00;78.50;;;;;;4840224;29;20030;-85
2020/12/10 11:25:32;;;;;;;7.20;4.93;;;8.00;78.40;;;;;;4855589;29;20323;-85
2020/12/10 11:27:58;;;;;;;7.30;4.93;;;8.00;78.20;;;;;;4855249;29;20037;-86
2020/12/10 11:30:24;;;;;;;7.00;4.93;;;7.90;78.40;;;;;;4920198;29;20039;-85
2020/12/10 11:32:50;;;;;;;6.80;4.78;;;7.90;78.60;;;;;;4918038;29;20218;-86
2020/12/10 11:35:39;;;;;;;7.13;4.78;;;8.00;78.50;;;;;;4934226;29;20034;-86
2020/12/10 11:38:04;;;;;;;7.68;4.63;;;7.90;78.50;;;;;;4895713;29;20096;-85
2020/12/10 11:40:30;;;;;;;8.63;5.55;;;7.90;78.60;;;;;;4912261;29;20032;-86
2020/12/10 11:42:55;;;;;;;8.27;4.63;;;8.00;78.50;;;;;;4895064;29;20033;-86
2020/12/10 11:45:21;;;;;;;8.07;5.50;;;8.00;78.50;;;;;;4879928;29;20093;-86
2020/12/10 11:47:48;;;;;;;9.63;5.47;;;8.00;78.20;;;;;;4928776;29;20113;-85
2020/12/10 11:50:19;;;;;;;10.05;5.55;;;7.90;78.00;;;;;;4915320;29;20036;-85
2020/12/10 11:52:54;;;;;;;5.93;4.60;;;7.90;78.10;;;;;;4887892;29;20029;-86
2020/12/10 11:55:21;;;;;;;7.50;4.40;;;7.80;78.30;;;;;;4894168;29;20435;-85
2020/12/10 11:58:07;;;;;;;6.90;4.10;;;7.80;78.50;;;;;;4874221;29;20128;-85
2020/12/10 12:00:33;;;;;;;5.55;4.70;;;7.80;78.70;;;;;;4859005;29;20029;-85
2020/12/10 12:02:59;;;;;;;5.80;4.32;;;7.80;78.70;;;;;;4874001;29;20046;-86
2020/12/10 12:05:25;;;;;;;5.68;4.40;;;7.80;78.40;;;;;;4874140;29;20025;-85
2020/12/10 12:07:53;;;;;;;7.50;5.25;;;7.80;78.30;;;;;;4843159;29;20041;-85
2020/12/10 12:10:20;;;;;;;6.55;5.07;;;7.80;78.80;;;;;;4874525;29;20033;-85
2020/12/10 12:12:48;;;;;;;7.40;5.18;;;7.80;78.70;;;;;;4859529;29;20340;-85
2020/12/10 12:15:13;;;;;;;9.18;5.32;;;7.80;78.90;;;;;;4877441;29;20034;-85
2020/12/10 12:18:01;;;;;;;7.60;5.40;;;7.80;78.90;;;;;;4887272;29;20036;-86
2020/12/10 12:20:26;;;;;;;7.40;5.40;;;7.80;79.00;;;;;;4796001;29;20030;-85
2020/12/10 12:22:52;;;;;;;7.10;5.20;;;7.80;79.00;;;;;;4818877;29;20053;-85
2020/12/10 12:25:20;;;;;;;8.20;5.82;;;7.80;78.80;;;;;;4818579;29;20043;-85
2020/12/10 12:27:47;;;;;;;7.75;5.60;;;7.80;79.00;;;;;;4803288;29;20047;-85
2020/12/10 12:30:13;;;;;;;6.70;4.90;;;7.80;79.60;;;;;;4803592;29;20046;-85
2020/12/10 12:32:38;;;;;;;7.65;5.18;;;7.70;78.70;;;;;;4813570;29;20023;-85
2020/12/10 12:35:04;;;;;;;7.65;5.47;;;7.70;78.70;;;;;;4813374;29;20039;-85
2020/12/10 12:37:30;;;;;;;8.15;5.18;;;7.70;79.20;;;;;;4806381;29;20072;-86
2020/12/10 12:40:17;;;;;;;7.55;5.07;;;7.70;79.70;;;;;;4814474;29;20054;-85
2020/12/10 12:42:46;;;;;;;34.38;15.90;;;7.70;78.60;;;;;;4812674;29;20149;-85
2020/12/10 12:45:32;;;;;;;45.75;20.17;;;7.70;78.80;;;;;;4822141;29;20022;-86
2020/12/10 12:48:19;;;;;;;44.28;20.65;;;7.60;79.00;;;;;;4843333;29;20040;-85
2020/12/10 12:51:07;;;;;;;49.03;22.02;;;7.70;79.20;;;;;;4819874;29;20076;-85
2020/12/10 12:53:33;;;;;;;52.28;23.35;;;7.70;79.00;;;;;;4806996;29;20204;-85
2020/12/10 12:55:59;;;;;;;54.83;24.15;;;7.60;79.20;;;;;;4803219;30;20118;-85
2020/12/10 12:58:24;;;;;;;61.97;26.67;;;7.60;79.30;;;;;;4785209;30;20089;-85
2020/12/10 13:00:51;;;;;;;64.05;27.70;;;7.60;79.20;;;;;;4799294;29;20035;-85
2020/12/10 13:03:16;;;;;;;55.95;26.98;;;7.40;79.20;;;;;;4794681;30;20027;-86
2020/12/10 13:05:43;;;;;;;59.55;25.50;;;7.50;79.30;;;;;;4799420;29;20037;-86
2020/12/10 13:08:08;;;;;;;62.90;27.83;;;7.40;79.50;;;;;;4784277;30;20262;-85
2020/12/10 13:10:34;;;;;;;77.03;32.88;;;7.30;78.60;;;;;;4822813;29;20022;-85
2020/12/10 13:13:00;;;;;;;86.15;36.55;;;7.30;78.50;;;;;;4857314;29;20033;-84
2020/12/10 13:15:26;;;;;;;99.77;40.93;;;7.20;78.20;;;;;;4872195;29;20064;-85
2020/12/10 13:18:14;;;;;;;110.13;43.88;;;7.20;78.40;;;;;;4871866;29;20274;-85
2020/12/10 13:20:41;;;;;;;101.28;42.08;;;7.10;78.50;;;;;;4881544;29;20040;-84
2020/12/10 13:23:07;;;;;;;112.10;44.33;;;7.10;78.50;;;;;;4890776;29;20057;-84
2020/12/10 13:25:33;;;;;;;106.05;43.72;;;7.10;78.40;;;;;;4890753;29;20120;-85
2020/12/10 13:27:58;;;;;;;111.97;46.00;;;7.10;78.00;;;;;;4891341;29;20033;-85
2020/12/10 13:30:25;;;;;;;122.18;47.92;;;7.00;77.90;;;;;;4894637;29;20028;-86
2020/12/10 13:32:54;;;;;;;127.28;47.97;;;7.00;78.50;;;;;;4897534;29;20024;-85
2020/12/10 13:35:19;;;;;;;123.93;45.35;;;7.10;78.40;;;;;;4945836;29;20043;-85
2020/12/10 13:37:45;;;;;;;122.95;47.63;;;7.10;78.40;;;;;;4948446;29;20024;-85
2020/12/10 13:40:11;;;;;;;119.25;45.85;;;7.00;78.40;;;;;;4948464;29;20023;-85
2020/12/10 13:42:36;;;;;;;120.13;46.65;;;7.00;78.70;;;;;;4949407;29;20043;-86
2020/12/10 13:45:06;;;;;;;120.38;47.13;;;7.00;78.70;;;;;;4947638;29;20015;-85
2020/12/10 13:47:55;;;;;;;135.02;51.72;;;7.00;78.90;;;;;;4928678;29;20028;-85
2020/12/10 13:50:41;;;;;;;133.10;48.67;;;7.00;78.70;;;;;;4893963;29;20036;-86
2020/12/10 13:53:06;;;;;;;136.07;50.08;;;7.00;79.00;;;;;;4871982;29;20029;-86
2020/12/10 13:55:40;;;;;;;129.00;51.53;;;7.00;78.80;;;;;;4872203;29;20153;-85
2020/12/10 13:58:06;;;;;;;136.40;52.92;;;7.00;78.70;;;;;;4859943;29;20029;-85
2020/12/10 14:00:52;;;;;;;125.17;48.80;;;7.00;78.80;;;;;;4810030;29;20058;-86
2020/12/10 14:03:38;;;;;;;135.88;53.08;;;7.00;78.80;;;;;;4817591;29;20300;-85
2020/12/10 14:06:03;;;;;;;146.05;52.22;;;7.00;78.60;;;;;;4798448;30;20110;-85
2020/12/10 14:08:49;;;;;;;131.55;51.17;;;6.90;78.40;;;;;;4779946;30;20132;-85
2020/12/10 14:11:25;;;;;;;133.65;52.88;;;6.90;78.30;;;;;;4781084;30;20717;-86
2020/12/10 14:13:51;;;;;;;151.00;56.88;;;6.90;78.80;;;;;;4731081;30;20037;-86
2020/12/10 14:16:17;;;;;;;158.20;59.88;;;6.80;78.50;;;;;;4724302;30;20369;-85
2020/12/10 14:18:43;;;;;;;163.35;57.78;;;6.70;78.90;;;;;;4718186;30;20040;-86
2020/12/10 14:21:10;;;;;;;150.52;55.58;;;6.80;79.00;;;;;;4731433;30;20328;-85
2020/12/10 14:23:39;;;;;;;142.25;54.15;;;6.70;78.70;;;;;;4728161;30;20044;-85
2020/12/10 14:26:08;;;;;;;150.70;55.70;;;6.60;78.80;;;;;;4731409;30;20041;-85
2020/12/10 14:28:37;;;;;;;143.50;56.15;;;6.70;79.00;;;;;;4760615;30;20036;-86
2020/12/10 14:31:05;;;;;;;142.85;55.90;;;6.60;79.00;;;;;;4748628;30;20070;-85
2020/12/10 14:33:39;;;;;;;;;;;6.60;79.20;;;;;;4746442;30;20126;-85
2020/12/10 14:36:05;;;;;;;136.35;52.97;;;6.70;79.40;;;;;;4756263;30;20269;-85
2020/12/10 14:38:34;;;;;;;140.00;56.55;;;6.70;79.30;;;;;;4797029;29;20043;-85
2020/12/10 14:41:24;;;;;;;161.70;58.70;;;6.70;79.00;;;;;;4816276;29;20051;-85
2020/12/10 14:43:50;;;;;;;152.25;59.13;;;6.70;79.10;;;;;;4853284;29;20052;-85
2020/12/10 14:46:15;;;;;;;159.93;58.70;;;6.80;79.00;;;;;;4922482;29;20029;-85
2020/12/10 14:48:41;;;;;;;157.52;57.67;;;6.70;79.20;;;;;;4902066;29;20111;-85
2020/12/10 14:51:07;;;;;;;161.98;60.67;;;6.60;79.10;;;;;;4903305;29;20016;-85
2020/12/10 14:53:34;;;;;;;162.95;62.15;;;6.60;79.10;;;;;;4903714;29;20035;-84
2020/12/10 14:56:02;;;;;;;187.25;64.35;;;6.60;79.20;;;;;;4908301;29;20226;-85
2020/12/10 14:58:28;;;;;;;154.20;60.70;;;6.70;79.40;;;;;;4874107;29;20062;-85
2020/12/10 15:00:53;;;;;;;183.50;63.33;;;6.70;79.00;;;;;;4885159;29;20041;-85
2020/12/10 15:03:19;;;;;;;155.38;58.63;;;6.80;78.90;;;;;;4876765;29;20153;-84
2020/12/10 15:05:48;;;;;;;169.70;61.67;;;6.80;78.80;;;;;;4875067;29;20316;-84
2020/12/10 15:08:13;;;;;;;167.32;60.65;;;6.70;78.90;;;;;;4912195;29;20059;-85
2020/12/10 15:10:41;;;;;;;173.95;58.80;;;6.70;79.20;;;;;;4936052;29;20408;-84
2020/12/10 15:13:10;;;;;;;158.90;60.58;;;6.70;79.40;;;;;;4930894;29;20028;-83
2020/12/10 15:15:35;;;;;;;151.02;57.92;;;6.70;79.40;;;;;;4933540;29;20057;-84
2020/12/10 15:18:01;;;;;;;152.43;58.45;;;6.80;79.20;;;;;;4932137;29;20031;-84
2020/12/10 15:20:27;;;;;;;151.45;57.38;;;6.70;78.90;;;;;;4946665;29;20116;-84
2020/12/10 15:23:12;;;;;;;151.15;55.53;;;6.70;78.90;;;;;;4920001;29;20024;-85
2020/12/10 15:25:38;;;;;;;148.82;57.63;;;6.70;78.90;;;;;;4912060;29;20072;-84
2020/12/10 15:28:06;;;;;;;139.70;56.67;;;6.70;79.00;;;;;;4910837;29;20039;-84
2020/12/10 15:30:32;;;;;;;143.15;56.17;;;6.70;79.20;;;;;;4904624;29;20152;-84
2020/12/10 15:32:58;;;;;;;147.63;57.78;;;6.70;78.90;;;;;;4927339;29;20064;-84
2020/12/10 15:35:23;;;;;;;142.70;55.80;;;6.60;79.20;;;;;;4918626;29;20036;-84
2020/12/10 15:37:49;;;;;;;161.02;60.75;;;6.60;79.50;;;;;;4930471;29;20028;-85
2020/12/10 15:40:38;;;;;;;139.45;55.50;;;6.60;80.30;;;;;;4913423;29;20066;-85
2020/12/10 15:43:07;;;;;;;143.75;58.80;;;6.60;79.60;;;;;;4927383;29;20023;-84
2020/12/10 15:45:33;;;;;;;159.90;61.47;;;6.60;80.20;;;;;;4922789;29;20028;-84
2020/12/10 15:47:58;;;;;;;159.80;61.13;;;6.60;79.30;;;;;;4917169;29;20298;-85
2020/12/10 15:50:26;;;;;;;162.82;60.22;;;6.60;79.00;;;;;;4898243;29;20043;-84
2020/12/10 15:52:51;;;;;;;163.88;60.38;;;6.50;79.10;;;;;;4937137;29;20224;-84
2020/12/10 15:55:17;;;;;;;166.93;60.50;;;6.50;79.60;;;;;;4937335;29;20093;-84
2020/12/10 15:57:43;;;;;;;188.25;65.10;;;6.50;79.70;;;;;;4953884;29;20217;-84
2020/12/10 16:00:10;;;;;;;172.77;63.35;;;6.50;79.60;;;;;;4959517;29;20140;-84
2020/12/10 16:02:56;;;;;;;187.13;66.90;;;6.50;79.70;;;;;;4955870;29;20309;-84
2020/12/10 16:05:21;;;;;;;188.30;64.07;;;6.50;79.90;;;;;;4953931;29;20039;-83
2020/12/10 16:07:47;;;;;;;159.80;60.90;;;6.50;79.50;;;;;;4954471;29;20164;-85
2020/12/10 16:10:12;;;;;;;163.07;61.72;;;6.60;79.70;;;;;;4945971;29;20052;-84
2020/12/10 16:12:38;;;;;;;173.63;63.10;;;6.50;79.70;;;;;;4956683;29;20067;-84
2020/12/10 16:15:06;;;;;;;156.00;60.63;;;6.50;80.40;;;;;;4942745;29;20019;-84
2020/12/10 16:17:32;;;;;;;173.25;62.17;;;6.60;79.70;;;;;;4943732;29;20087;-85
2020/12/10 16:19:57;;;;;;;160.88;60.65;;;6.50;79.50;;;;;;4948479;29;20046;-85
2020/12/10 16:22:23;;;;;;;147.25;56.42;;;6.50;79.70;;;;;;4944733;29;20035;-85
2020/12/10 16:24:49;;;;;;;148.00;56.75;;;6.50;79.70;;;;;;4945543;29;20042;-85
2020/12/10 16:27:15;;;;;;;142.85;57.67;;;6.60;79.90;;;;;;4953035;29;20059;-84
2020/12/10 16:29:44;;;;;;;156.67;60.70;;;6.60;79.70;;;;;;4946164;29;20222;-85
2020/12/10 16:32:11;;;;;;;154.95;61.85;;;6.60;79.60;;;;;;4937977;29;20031;-84
2020/12/10 16:34:37;;;;;;;147.38;59.60;;;6.70;79.40;;;;;;4947656;29;20234;-84
2020/12/10 16:37:03;;;;;;;154.95;57.30;;;6.60;79.40;;;;;;4949955;29;20059;-84
2020/12/10 16:39:30;;;;;;;156.10;60.13;;;6.60;79.50;;;;;;4958674;29;20023;-84
2020/12/10 16:41:57;;;;;;;154.17;58.03;;;6.70;79.50;;;;;;4934702;29;20039;-85
2020/12/10 16:44:22;;;;;;;153.65;60.90;;;6.70;79.30;;;;;;4943726;29;20059;-83
2020/12/10 16:46:50;;;;;;;164.80;61.95;;;6.70;79.40;;;;;;4943873;28;20032;-85
2020/12/10 16:49:17;;;;;;;160.90;59.70;;;6.60;79.50;;;;;;4942945;29;20052;-84
2020/12/10 16:51:43;;;;;;;168.32;62.90;;;6.60;79.60;;;;;;4964898;28;20090;-84
2020/12/10 16:54:09;;;;;;;162.93;62.47;;;6.60;79.60;;;;;;4953372;29;20035;-84